Time;durP1;ratioP1;P1;durP2;ratioP2;P2;SDS_P1;SDS_P2;PMS_P1;PMS_P2;Temp;Humidity;BMP_temperature;BMP_pressure;BME280_temperature;BME280_humidity;BME280_pressure;Samples;Min_cycle;Max_cycle;Signal;HPM_P1;HPM_P2
2021/05/01 00:00:42;;;;;;;30.60;27.47;;;11.50;69.90;;;;;;5093796;28;20500;-74
2021/05/01 00:03:09;;;;;;;31.07;27.53;;;11.40;69.80;;;;;;5093762;28;20447;-74
2021/05/01 00:05:36;;;;;;;31.20;27.90;;;11.40;69.90;;;;;;5093677;28;20435;-74
2021/05/01 00:08:04;;;;;;;31.63;28.37;;;11.30;69.90;;;;;;5093690;28;20432;-74
2021/05/01 00:10:30;;;;;;;33.77;30.27;;;11.30;69.60;;;;;;5093549;28;20444;-74
2021/05/01 00:12:57;;;;;;;34.03;30.20;;;11.30;70.00;;;;;;5093605;28;20448;-74
2021/05/01 00:15:23;;;;;;;35.77;30.00;;;11.20;70.10;;;;;;5093662;28;20440;-74
2021/05/01 00:17:49;;;;;;;35.23;31.07;;;11.20;70.80;;;;;;5093578;28;20444;-74
2021/05/01 00:20:15;;;;;;;35.50;31.90;;;11.00;71.50;;;;;;5093620;28;20464;-74
2021/05/01 00:22:42;;;;;;;39.20;35.10;;;11.00;72.10;;;;;;5093569;28;20447;-74
2021/05/01 00:25:10;;;;;;;38.50;33.77;;;10.90;72.90;;;;;;5093383;28;20476;-74
2021/05/01 00:27:36;;;;;;;39.60;34.63;;;10.80;74.20;;;;;;5093421;28;20474;-74
2021/05/01 00:30:03;;;;;;;38.80;34.60;;;10.80;75.30;;;;;;5093399;28;20506;-74
2021/05/01 00:32:30;;;;;;;41.10;35.47;;;10.70;75.80;;;;;;5093477;28;20454;-75
2021/05/01 00:34:56;;;;;;;38.83;34.63;;;10.50;76.70;;;;;;5093410;28;20465;-74
2021/05/01 00:37:22;;;;;;;43.40;36.03;;;10.50;77.30;;;;;;5093425;28;20454;-74
2021/05/01 00:39:48;;;;;;;42.00;36.80;;;10.40;78.10;;;;;;5093356;28;20479;-74
2021/05/01 00:42:15;;;;;;;41.60;37.20;;;10.30;78.70;;;;;;5093412;28;20451;-74
2021/05/01 00:44:42;;;;;;;40.60;36.20;;;10.30;79.40;;;;;;5093012;28;20471;-74
2021/05/01 00:47:08;;;;;;;40.43;35.93;;;10.20;79.70;;;;;;5092997;28;20929;-74
2021/05/01 00:49:34;;;;;;;43.90;38.33;;;10.10;80.20;;;;;;5093175;28;20464;-74
2021/05/01 00:52:00;;;;;;;43.80;37.67;;;10.00;80.50;;;;;;5093360;28;20432;-74
2021/05/01 00:54:27;;;;;;;42.73;38.33;;;9.90;81.80;;;;;;5093316;28;20439;-74
2021/05/01 00:56:53;;;;;;;41.37;36.60;;;9.90;82.10;;;;;;5092944;28;20443;-74
2021/05/01 00:59:20;;;;;;;43.87;39.20;;;9.90;82.30;;;;;;5092837;28;20459;-74
2021/05/01 01:01:50;;;;;;;45.13;40.20;;;9.80;82.60;;;;;;5093146;28;20509;-74
2021/05/01 01:04:16;;;;;;;43.50;38.80;;;9.80;82.70;;;;;;5093066;28;20909;-74
2021/05/01 01:06:43;;;;;;;43.50;38.87;;;9.80;82.60;;;;;;5093134;28;20455;-74
2021/05/01 01:09:09;;;;;;;43.27;38.37;;;9.80;82.40;;;;;;5093045;28;20468;-74
2021/05/01 01:11:36;;;;;;;42.20;37.63;;;10.00;80.90;;;;;;5096556;28;20451;-74
2021/05/01 01:14:04;;;;;;;43.23;38.17;;;10.00;80.50;;;;;;5096928;28;20439;-74
2021/05/01 01:16:31;;;;;;;37.70;33.80;;;10.10;79.80;;;;;;5096991;28;20443;-74
2021/05/01 01:18:58;;;;;;;40.83;36.63;;;10.20;79.20;;;;;;5096693;28;20463;-74
2021/05/01 01:21:25;;;;;;;38.43;33.53;;;10.20;77.90;;;;;;5096689;28;20443;-74
2021/05/01 01:23:52;;;;;;;38.30;34.30;;;10.30;77.10;;;;;;5096582;28;20479;-74
2021/05/01 01:26:19;;;;;;;39.20;34.93;;;10.30;76.50;;;;;;5096693;28;20454;-74
2021/05/01 01:28:45;;;;;;;44.37;37.93;;;10.30;77.10;;;;;;5096510;28;20842;-74
2021/05/01 01:31:11;;;;;;;40.53;36.10;;;10.40;76.30;;;;;;5096547;28;20444;-74
2021/05/01 01:33:39;;;;;;;38.27;34.20;;;10.40;75.80;;;;;;5096533;28;20447;-74
2021/05/01 01:36:07;;;;;;;38.50;34.50;;;10.40;75.30;;;;;;5096548;28;20454;-74
2021/05/01 01:38:33;;;;;;;41.33;37.07;;;10.40;74.70;;;;;;5096293;28;20516;-74
2021/05/01 01:41:00;;;;;;;38.60;34.50;;;10.40;73.80;;;;;;5096380;28;20497;-74
2021/05/01 01:43:27;;;;;;;39.70;35.47;;;10.40;74.00;;;;;;5096821;28;20446;-74
2021/05/01 01:45:53;;;;;;;40.47;36.13;;;10.40;73.90;;;;;;5096294;28;20465;-74
2021/05/01 01:48:20;;;;;;;42.23;36.37;;;10.30;74.00;;;;;;5095880;28;20980;-74
2021/05/01 01:50:46;;;;;;;42.17;37.67;;;10.30;74.10;;;;;;5096168;28;20529;-74
2021/05/01 01:53:12;;;;;;;40.17;35.77;;;10.30;74.10;;;;;;5096129;28;20451;-74
2021/05/01 01:55:39;;;;;;;42.97;37.97;;;10.20;74.10;;;;;;5096138;28;20443;-74
2021/05/01 01:58:06;;;;;;;41.20;36.77;;;10.10;74.20;;;;;;5095983;28;20439;-74
2021/05/01 02:00:33;;;;;;;42.57;37.67;;;10.10;74.40;;;;;;5095747;28;20497;-74
2021/05/01 02:03:00;;;;;;;40.87;36.33;;;10.10;74.70;;;;;;5095624;28;20448;-74
2021/05/01 02:05:26;;;;;;;41.40;36.67;;;10.00;74.70;;;;;;5095854;28;20514;-74
2021/05/01 02:07:52;;;;;;;39.13;35.00;;;10.00;74.50;;;;;;5095837;28;20447;-74
2021/05/01 02:10:19;;;;;;;40.13;35.83;;;10.00;74.00;;;;;;5095746;28;20814;-74
2021/05/01 02:12:46;;;;;;;39.93;35.33;;;10.00;73.80;;;;;;5095758;28;20452;-74
2021/05/01 02:15:15;;;;;;;39.83;35.63;;;10.00;73.90;;;;;;5095417;28;20921;-74
2021/05/01 02:17:43;;;;;;;39.97;35.77;;;10.00;73.40;;;;;;5095762;28;20452;-74
2021/05/01 02:20:11;;;;;;;39.47;35.40;;;10.00;72.90;;;;;;5095309;28;20849;-74
2021/05/01 02:22:38;;;;;;;36.13;32.30;;;10.00;72.30;;;;;;5095616;28;20542;-74
2021/05/01 02:25:07;;;;;;;38.27;34.27;;;9.90;73.20;;;;;;5095472;28;20479;-74
2021/05/01 02:27:33;;;;;;;42.27;36.30;;;9.90;73.30;;;;;;5094340;28;20538;-74
2021/05/01 02:30:00;;;;;;;39.27;35.20;;;9.90;73.10;;;;;;5095127;28;21039;-73
2021/05/01 02:32:27;;;;;;;38.93;34.80;;;9.90;73.00;;;;;;5095437;28;20543;-73
2021/05/01 02:34:53;;;;;;;38.30;33.57;;;9.80;72.50;;;;;;5095271;28;20436;-73
2021/05/01 02:37:19;;;;;;;38.73;33.80;;;9.80;72.40;;;;;;5095326;28;20497;-73
2021/05/01 02:39:45;;;;;;;36.70;32.70;;;9.80;71.90;;;;;;5094932;28;20456;-73
2021/05/01 02:42:12;;;;;;;37.10;32.70;;;9.80;71.90;;;;;;5095092;28;20448;-74
2021/05/01 02:44:38;;;;;;;35.20;31.60;;;9.70;71.90;;;;;;5095001;28;20486;-73
2021/05/01 02:47:04;;;;;;;37.03;33.07;;;9.70;71.80;;;;;;5095052;28;20475;-73
2021/05/01 02:49:31;;;;;;;38.00;34.00;;;9.70;71.70;;;;;;5095151;28;20471;-73
2021/05/01 02:51:58;;;;;;;36.40;31.90;;;9.60;71.30;;;;;;5095143;28;20466;-73
2021/05/01 02:54:24;;;;;;;35.27;31.53;;;9.60;71.00;;;;;;5094938;28;20435;-73
2021/05/01 02:56:50;;;;;;;34.83;31.20;;;9.60;71.00;;;;;;5094960;28;20458;-73
2021/05/01 02:59:17;;;;;;;36.30;32.40;;;9.60;71.00;;;;;;5094790;28;20835;-73
2021/05/01 03:01:43;;;;;;;36.70;32.80;;;9.50;70.70;;;;;;5094612;28;20442;-73
2021/05/01 03:04:09;;;;;;;38.83;34.03;;;9.50;70.60;;;;;;5094774;28;20480;-73
2021/05/01 03:06:36;;;;;;;36.07;32.43;;;9.50;70.50;;;;;;5094778;28;20455;-73
2021/05/01 03:09:03;;;;;;;35.90;32.20;;;9.40;70.40;;;;;;5094330;28;20456;-74
2021/05/01 03:11:29;;;;;;;35.57;31.83;;;9.40;70.60;;;;;;5094582;28;20479;-74
2021/05/01 03:13:56;;;;;;;36.70;32.90;;;9.30;70.50;;;;;;5094282;28;20443;-74
2021/05/01 03:16:22;;;;;;;36.50;32.57;;;9.30;70.60;;;;;;5094545;28;20988;-74
2021/05/01 03:18:48;;;;;;;35.77;31.60;;;9.20;70.40;;;;;;5094090;28;20468;-74
2021/05/01 03:21:14;;;;;;;33.40;29.70;;;9.20;70.60;;;;;;5094157;28;20428;-74
2021/05/01 03:23:42;;;;;;;35.17;31.37;;;9.20;70.60;;;;;;5094315;28;20494;-74
2021/05/01 03:26:08;;;;;;;35.83;32.00;;;9.20;70.30;;;;;;5094368;28;20444;-74
2021/05/01 03:28:34;;;;;;;39.27;35.07;;;9.20;70.20;;;;;;5094256;28;20475;-73
2021/05/01 03:31:00;;;;;;;37.77;32.87;;;9.10;70.00;;;;;;5094275;28;20504;-73
2021/05/01 03:33:28;;;;;;;41.70;34.60;;;9.10;70.80;;;;;;5093841;28;20450;-73
2021/05/01 03:35:55;;;;;;;35.90;32.27;;;9.10;71.60;;;;;;5094194;28;20447;-73
2021/05/01 03:38:22;;;;;;;38.90;33.13;;;9.10;71.30;;;;;;5094124;28;20482;-73
2021/05/01 03:40:49;;;;;;;41.57;34.10;;;9.00;71.20;;;;;;5094094;28;20448;-73
2021/05/01 03:43:15;;;;;;;36.27;32.53;;;9.00;70.90;;;;;;5094046;28;20459;-73
2021/05/01 03:45:41;;;;;;;37.63;32.63;;;9.00;70.90;;;;;;5093985;28;20483;-73
2021/05/01 03:48:09;;;;;;;38.87;34.27;;;9.00;70.90;;;;;;5093876;28;20451;-73
2021/05/01 03:50:35;;;;;;;37.60;33.60;;;9.00;70.90;;;;;;5093831;28;20463;-73
2021/05/01 03:53:01;;;;;;;37.40;33.40;;;9.00;70.60;;;;;;5093912;28;20455;-73
2021/05/01 03:55:28;;;;;;;35.47;31.77;;;9.00;70.50;;;;;;5093927;28;20497;-73
2021/05/01 03:57:55;;;;;;;38.73;34.33;;;8.90;70.50;;;;;;5093895;28;20455;-73
2021/05/01 04:00:23;;;;;;;37.03;32.97;;;8.90;70.70;;;;;;5093768;28;20462;-73
2021/05/01 04:02:49;;;;;;;40.97;33.90;;;8.90;70.90;;;;;;5093817;28;20819;-73
2021/05/01 04:05:16;;;;;;;37.83;33.73;;;8.90;70.80;;;;;;5093640;28;20482;-73
2021/05/01 04:07:42;;;;;;;37.93;32.63;;;8.80;70.80;;;;;;5093730;28;20493;-73
2021/05/01 04:10:10;;;;;;;42.00;34.00;;;8.80;70.80;;;;;;5093637;28;20544;-73
2021/05/01 04:12:36;;;;;;;40.50;35.27;;;8.80;70.90;;;;;;5093630;28;20451;-73
2021/05/01 04:15:04;;;;;;;36.80;32.80;;;8.80;70.90;;;;;;5093357;28;20448;-73
2021/05/01 04:17:30;;;;;;;37.03;32.13;;;8.70;70.80;;;;;;5093623;28;20445;-73
2021/05/01 04:19:56;;;;;;;40.53;34.20;;;8.70;71.00;;;;;;5093520;28;20470;-73
2021/05/01 04:22:23;;;;;;;39.13;33.80;;;8.70;71.10;;;;;;5093546;28;20941;-73
2021/05/01 04:24:50;;;;;;;37.80;32.30;;;8.70;71.10;;;;;;5093521;28;20563;-73
2021/05/01 04:27:17;;;;;;;43.23;34.73;;;8.70;71.30;;;;;;5093444;28;20446;-73
2021/05/01 04:29:43;;;;;;;36.17;32.20;;;8.70;71.70;;;;;;5093410;28;20840;-73
2021/05/01 04:32:10;;;;;;;39.60;35.30;;;8.70;71.70;;;;;;5093124;28;20452;-73
2021/05/01 04:34:36;;;;;;;36.57;32.03;;;8.70;71.90;;;;;;5093482;28;20444;-73
2021/05/01 04:37:03;;;;;;;40.77;34.73;;;8.70;71.60;;;;;;5093452;28;20436;-73
2021/05/01 04:39:29;;;;;;;38.70;33.87;;;8.70;71.60;;;;;;5093340;28;20468;-73
2021/05/01 04:41:55;;;;;;;36.03;30.60;;;8.70;71.80;;;;;;5093384;28;20455;-73
2021/05/01 04:44:22;;;;;;;37.83;33.13;;;8.60;71.60;;;;;;5093302;28;20812;-73
2021/05/01 04:46:50;;;;;;;38.13;33.93;;;8.70;71.80;;;;;;5096920;28;20949;-73
2021/05/01 04:49:17;;;;;;;38.73;32.53;;;8.60;72.00;;;;;;5097633;28;20455;-73
2021/05/01 04:51:43;;;;;;;36.60;32.60;;;8.60;72.00;;;;;;5097159;28;20470;-73
2021/05/01 04:54:10;;;;;;;40.73;32.43;;;8.60;72.00;;;;;;5097353;28;20439;-73
2021/05/01 04:56:36;;;;;;;34.30;30.80;;;8.60;71.90;;;;;;5097338;28;20447;-73
2021/05/01 04:59:03;;;;;;;33.43;29.83;;;8.60;71.80;;;;;;5097156;28;20808;-73
2021/05/01 05:01:29;;;;;;;34.37;30.63;;;8.50;71.60;;;;;;5097169;28;20443;-73
2021/05/01 05:03:55;;;;;;;32.33;28.83;;;8.50;71.60;;;;;;5097064;28;20447;-73
2021/05/01 05:06:23;;;;;;;32.33;29.00;;;8.50;71.80;;;;;;5096748;28;20933;-73
2021/05/01 05:08:49;;;;;;;34.33;29.53;;;8.50;72.10;;;;;;5096994;28;20996;-73
2021/05/01 05:11:15;;;;;;;34.60;30.77;;;8.50;72.60;;;;;;5096963;28;20792;-73
2021/05/01 05:13:41;;;;;;;47.87;37.53;;;8.50;73.40;;;;;;5096831;28;20941;-73
2021/05/01 05:16:07;;;;;;;40.63;35.30;;;8.60;74.80;;;;;;5097129;28;20441;-73
2021/05/01 05:18:34;;;;;;;44.77;37.37;;;8.60;76.00;;;;;;5097095;28;20516;-73
2021/05/01 05:21:00;;;;;;;41.77;33.77;;;8.60;76.90;;;;;;5096911;28;20440;-73
2021/05/01 05:23:27;;;;;;;41.20;35.60;;;8.70;77.40;;;;;;5096802;28;20440;-73
2021/05/01 05:25:53;;;;;;;42.80;34.60;;;8.70;77.70;;;;;;5096904;28;20485;-73
2021/05/01 05:28:20;;;;;;;40.40;34.77;;;8.80;77.40;;;;;;5097006;28;20448;-73
2021/05/01 05:30:46;;;;;;;38.70;32.90;;;8.80;77.20;;;;;;5096480;28;20446;-73
2021/05/01 05:33:12;;;;;;;38.27;34.10;;;8.90;77.50;;;;;;5096726;28;20446;-73
2021/05/01 05:35:38;;;;;;;38.93;34.57;;;8.80;77.30;;;;;;5096503;28;20441;-73
2021/05/01 05:38:05;;;;;;;35.60;30.83;;;8.90;77.20;;;;;;5096403;28;20451;-73
2021/05/01 05:40:33;;;;;;;38.60;32.53;;;9.00;77.20;;;;;;5096159;28;20439;-73
2021/05/01 05:43:00;;;;;;;39.80;33.77;;;9.00;77.20;;;;;;5096421;28;20444;-73
2021/05/01 05:45:28;;;;;;;43.23;37.60;;;9.00;77.10;;;;;;5097115;28;20513;-73
2021/05/01 05:47:55;;;;;;;37.70;33.60;;;9.10;77.30;;;;;;5096095;28;20454;-73
2021/05/01 05:50:21;;;;;;;40.40;35.50;;;9.10;78.20;;;;;;5095933;28;20827;-73
2021/05/01 05:52:48;;;;;;;43.53;38.27;;;9.10;78.90;;;;;;5096804;28;20455;-73
2021/05/01 05:55:15;;;;;;;45.13;38.00;;;9.20;79.40;;;;;;5097215;28;20436;-73
2021/05/01 05:57:48;;;;;;;48.40;41.10;;;9.20;80.10;;;;;;5096911;28;20479;-73
2021/05/01 06:00:16;;;;;;;41.47;36.53;;;9.20;80.20;;;;;;5097677;28;20471;-73
2021/05/01 06:02:43;;;;;;;47.97;39.60;;;9.30;80.40;;;;;;5097099;28;20564;-73
2021/05/01 06:05:15;;;;;;;45.93;39.60;;;9.30;80.50;;;;;;5095918;28;20524;-73
2021/05/01 06:07:43;;;;;;;45.30;39.17;;;9.40;80.80;;;;;;5096125;28;20940;-73
2021/05/01 06:10:11;;;;;;;47.93;42.60;;;9.50;80.80;;;;;;5095863;28;20459;-73
2021/05/01 06:12:38;;;;;;;46.43;41.00;;;9.50;80.80;;;;;;5095783;28;20451;-73
2021/05/01 06:15:07;;;;;;;42.33;37.80;;;9.60;81.00;;;;;;5096044;28;20523;-73
2021/05/01 06:17:34;;;;;;;44.80;37.40;;;9.60;81.50;;;;;;5095146;28;20444;-73
2021/05/01 06:20:01;;;;;;;44.70;35.73;;;9.70;81.30;;;;;;5095578;28;20855;-73
2021/05/01 06:22:27;;;;;;;43.23;37.80;;;9.70;81.30;;;;;;5095529;28;20432;-73
2021/05/01 06:24:54;;;;;;;41.77;37.37;;;9.70;81.60;;;;;;5095138;28;21012;-73
2021/05/01 06:27:21;;;;;;;45.10;40.30;;;9.70;81.60;;;;;;5095607;28;20534;-73
2021/05/01 06:29:48;;;;;;;43.00;38.50;;;9.70;81.90;;;;;;5096005;28;20463;-73
2021/05/01 06:32:19;;;;;;;43.77;38.47;;;9.80;82.20;;;;;;5095656;28;20440;-73
2021/05/01 06:34:47;;;;;;;42.77;38.17;;;9.80;81.40;;;;;;5095715;28;20446;-73
2021/05/01 06:37:16;;;;;;;47.10;37.93;;;9.90;81.60;;;;;;5095293;28;20443;-73
2021/05/01 06:39:44;;;;;;;43.50;36.00;;;9.80;81.20;;;;;;5095247;28;20547;-73
2021/05/01 06:42:14;;;;;;;43.17;34.13;;;9.90;80.80;;;;;;5095416;28;20456;-73
2021/05/01 06:44:49;;;;;;;37.00;33.03;;;10.00;79.40;;;;;;5095165;28;20463;-73
2021/05/01 06:47:22;;;;;;;41.83;35.10;;;10.00;79.00;;;;;;5095176;28;20441;-73
2021/05/01 06:49:53;;;;;;;40.30;35.27;;;10.10;79.40;;;;;;5094786;28;20474;-73
2021/05/01 06:52:20;;;;;;;42.03;34.20;;;10.20;79.80;;;;;;5095051;28;20435;-73
2021/05/01 06:54:49;;;;;;;39.20;32.90;;;10.30;78.20;;;;;;5094709;28;20960;-73
2021/05/01 06:57:16;;;;;;;33.73;30.00;;;10.40;78.20;;;;;;5094706;28;20455;-73
2021/05/01 06:59:43;;;;;;;31.83;28.00;;;10.50;77.80;;;;;;5094824;28;20521;-73
2021/05/01 07:02:10;;;;;;;31.60;27.80;;;10.60;77.80;;;;;;5094896;28;20451;-73
2021/05/01 07:04:37;;;;;;;36.57;29.73;;;10.70;76.20;;;;;;5094859;28;20479;-73
2021/05/01 07:07:06;;;;;;;33.73;28.53;;;10.80;75.60;;;;;;5094299;28;20484;-73
2021/05/01 07:09:32;;;;;;;32.77;29.40;;;10.80;75.00;;;;;;5093911;28;20460;-73
2021/05/01 07:12:00;;;;;;;34.17;29.40;;;10.90;74.80;;;;;;5094669;28;20451;-73
2021/05/01 07:14:27;;;;;;;33.80;30.00;;;11.10;74.20;;;;;;5094656;28;20459;-73
2021/05/01 07:16:53;;;;;;;35.43;31.67;;;11.20;72.80;;;;;;5094264;28;20948;-73
2021/05/01 07:19:21;;;;;;;34.70;31.07;;;11.40;73.30;;;;;;5094462;28;20855;-73
2021/05/01 07:21:48;;;;;;;39.13;32.13;;;11.50;72.90;;;;;;5094472;28;20448;-73
2021/05/01 07:24:15;;;;;;;37.20;33.20;;;11.70;72.00;;;;;;5094326;28;20838;-73
2021/05/01 07:26:42;;;;;;;36.03;31.97;;;12.00;71.40;;;;;;5094334;28;20860;-73
2021/05/01 07:29:09;;;;;;;38.60;34.17;;;12.10;69.50;;;;;;5094259;28;20517;-73
2021/05/01 07:31:39;;;;;;;37.93;33.97;;;12.20;68.20;;;;;;5094331;28;20432;-73
2021/05/01 07:34:09;;;;;;;36.83;32.60;;;12.20;68.70;;;;;;5094333;28;20440;-73
2021/05/01 07:36:39;;;;;;;38.40;34.30;;;12.10;70.10;;;;;;5094319;28;20428;-73
2021/05/01 07:39:09;;;;;;;36.33;29.87;;;12.20;69.10;;;;;;5094213;28;20472;-74
2021/05/01 07:41:39;;;;;;;33.13;29.60;;;12.40;68.60;;;;;;5094462;28;20436;-75
2021/05/01 07:44:07;;;;;;;36.10;28.83;;;12.40;66.70;;;;;;5094518;28;21105;-74
2021/05/01 07:46:34;;;;;;;28.27;25.33;;;12.50;67.60;;;;;;5093721;28;20972;-74
2021/05/01 07:49:01;;;;;;;31.00;27.80;;;12.60;65.60;;;;;;5093885;28;20478;-74
2021/05/01 07:51:28;;;;;;;28.47;25.43;;;12.70;65.00;;;;;;5093668;28;20827;-74
2021/05/01 07:53:54;;;;;;;29.50;23.93;;;12.60;62.70;;;;;;5094135;28;20799;-74
2021/05/01 07:56:21;;;;;;;22.60;20.10;;;12.60;63.00;;;;;;5094036;28;20436;-74
2021/05/01 07:58:47;;;;;;;25.00;20.80;;;12.30;62.70;;;;;;5093794;28;20455;-74
2021/05/01 08:01:13;;;;;;;24.23;21.83;;;12.20;64.70;;;;;;5093592;28;20432;-74
2021/05/01 08:03:39;;;;;;;22.20;18.80;;;12.10;65.10;;;;;;5093920;28;20447;-74
2021/05/01 08:06:06;;;;;;;23.07;19.43;;;12.00;64.70;;;;;;5093728;28;20491;-74
2021/05/01 08:08:32;;;;;;;23.10;19.77;;;12.00;64.40;;;;;;5093802;28;20464;-74
2021/05/01 08:10:58;;;;;;;24.53;19.93;;;12.10;63.70;;;;;;5093872;28;20432;-74
2021/05/01 08:13:25;;;;;;;27.00;23.27;;;12.20;63.20;;;;;;5093542;28;20457;-74
2021/05/01 08:15:53;;;;;;;28.37;22.63;;;12.20;64.60;;;;;;5093780;28;20505;-74
2021/05/01 08:18:19;;;;;;;25.30;22.70;;;12.40;64.70;;;;;;5093650;28;20790;-74
2021/05/01 08:20:49;;;;;;;19.43;17.37;;;12.60;64.30;;;;;;5093470;28;20443;-74
2021/05/01 08:23:15;;;;;;;21.27;18.97;;;12.70;60.10;;;;;;5093686;28;20447;-74
2021/05/01 08:25:41;;;;;;;19.83;17.80;;;12.90;59.40;;;;;;5093709;28;20458;-76
2021/05/01 08:28:07;;;;;;;22.97;20.27;;;13.00;59.00;;;;;;5093439;28;20448;-74
2021/05/01 08:30:35;;;;;;;22.40;19.30;;;13.30;60.00;;;;;;5093242;28;20530;-74
2021/05/01 08:33:01;;;;;;;19.93;18.03;;;13.50;58.20;;;;;;5093484;28;20450;-76
2021/05/01 08:35:28;;;;;;;20.00;17.40;;;13.70;55.40;;;;;;5093909;28;20440;-75
2021/05/01 08:37:54;;;;;;;20.70;16.37;;;13.70;57.00;;;;;;5093510;28;20436;-74
2021/05/01 08:40:20;;;;;;;18.33;16.43;;;13.80;55.70;;;;;;5093390;28;20468;-74
2021/05/01 08:42:47;;;;;;;20.10;17.43;;;13.90;53.60;;;;;;5093679;28;20428;-74
2021/05/01 08:45:15;;;;;;;19.53;16.50;;;14.10;53.70;;;;;;5093406;28;20468;-75
2021/05/01 08:47:45;;;;;;;19.73;17.70;;;14.40;53.30;;;;;;5093555;28;20818;-75
2021/05/01 08:50:32;;;;;;;19.33;17.33;;;14.40;53.90;;;;;;5093742;28;20471;-74
2021/05/01 08:53:00;;;;;;;20.23;17.33;;;14.40;52.70;;;;;;5093449;28;20428;-74
2021/05/01 08:55:29;;;;;;;16.07;14.53;;;14.50;52.60;;;;;;5093734;28;20439;-74
2021/05/01 08:57:55;;;;;;;16.63;14.93;;;14.70;51.40;;;;;;5093712;28;20444;-75
2021/05/01 09:00:23;;;;;;;20.50;15.00;;;14.70;50.10;;;;;;5093235;28;20978;-75
2021/05/01 09:02:50;;;;;;;17.70;16.03;;;14.90;50.30;;;;;;5093516;28;20967;-75
2021/05/01 09:05:18;;;;;;;21.43;17.00;;;15.20;49.70;;;;;;5094757;28;20556;-75
2021/05/01 09:07:46;;;;;;;19.47;16.13;;;15.50;51.30;;;;;;5095961;28;20979;-75
2021/05/01 09:10:13;;;;;;;18.87;17.13;;;15.80;49.20;;;;;;5098325;28;20467;-75
2021/05/01 09:12:43;;;;;;;17.77;15.10;;;16.00;48.30;;;;;;5096574;28;20448;-75
2021/05/01 09:15:11;;;;;;;16.10;14.40;;;16.30;47.60;;;;;;5094372;28;20460;-74
2021/05/01 09:17:38;;;;;;;14.13;12.70;;;16.60;48.00;;;;;;5093102;28;20518;-74
2021/05/01 09:20:08;;;;;;;18.40;13.70;;;17.00;47.20;;;;;;5093200;28;20516;-74
2021/05/01 09:22:55;;;;;;;12.53;11.23;;;17.20;44.10;;;;;;5093334;28;20436;-74
2021/05/01 09:25:22;;;;;;;12.03;10.80;;;17.20;42.50;;;;;;5093241;28;20463;-74
2021/05/01 09:28:14;;;;;;;11.70;10.63;;;17.20;42.20;;;;;;5093159;28;20505;-74
2021/05/01 09:30:42;;;;;;;11.67;10.60;;;17.50;42.70;;;;;;5078640;28;21010;-74
2021/05/01 09:33:19;;;;;;;14.47;12.27;;;17.70;42.20;;;;;;5096489;28;20496;-74
2021/05/01 09:35:50;;;;;;;12.20;11.00;;;17.80;41.60;;;;;;5096591;28;20430;-74
2021/05/01 09:38:18;;;;;;;12.53;11.33;;;17.60;41.20;;;;;;5096456;28;20428;-74
2021/05/01 09:40:46;;;;;;;11.13;10.13;;;17.30;40.80;;;;;;5096166;28;20527;-74
2021/05/01 09:43:12;;;;;;;10.93;9.93;;;17.30;41.20;;;;;;5096444;28;20439;-74
2021/05/01 09:45:38;;;;;;;11.50;10.30;;;17.50;41.70;;;;;;5096385;28;20479;-74
2021/05/01 09:48:15;;;;;;;12.10;10.83;;;17.80;40.40;;;;;;5096309;28;20454;-74
2021/05/01 09:50:42;;;;;;;8.10;7.30;;;18.10;38.90;;;;;;5096124;28;20463;-74
2021/05/01 09:53:13;;;;;;;8.83;8.03;;;18.60;39.80;;;;;;5095857;28;20937;-74
2021/05/01 09:55:59;;;;;;;11.70;9.33;;;19.40;38.60;;;;;;5096970;28;20439;-74
2021/05/01 09:58:27;;;;;;;10.47;9.47;;;19.70;35.30;;;;;;5096086;28;20463;-74
2021/05/01 10:01:12;;;;;;;9.27;8.37;;;19.30;34.90;;;;;;5096355;28;20440;-74
2021/05/01 10:03:38;;;;;;;9.20;8.30;;;18.40;35.20;;;;;;5096058;28;20797;-74
2021/05/01 10:06:07;;;;;;;9.10;6.90;;;17.70;37.20;;;;;;5095901;28;20487;-74
2021/05/01 10:08:34;;;;;;;10.10;9.20;;;17.40;38.50;;;;;;5095544;28;20992;-74
2021/05/01 10:11:07;;;;;;;8.47;7.67;;;17.50;36.50;;;;;;5095880;28;20451;-74
2021/05/01 10:13:37;;;;;;;11.63;6.87;;;17.70;35.10;;;;;;5096027;28;20432;-75
2021/05/01 10:16:06;;;;;;;7.03;6.37;;;18.20;36.80;;;;;;5095835;28;20493;-75
2021/05/01 10:18:33;;;;;;;10.63;8.33;;;18.70;33.90;;;;;;5095338;28;20478;-75
2021/05/01 10:21:00;;;;;;;9.10;8.20;;;19.30;34.60;;;;;;5095700;28;20428;-75
2021/05/01 10:23:27;;;;;;;8.13;7.33;;;19.40;35.00;;;;;;5095675;28;20826;-75
2021/05/01 10:26:11;;;;;;;7.30;6.70;;;19.60;35.60;;;;;;5095373;28;20472;-75
2021/05/01 10:28:46;;;;;;;8.77;7.60;;;19.70;32.30;;;;;;5095855;28;20471;-75
2021/05/01 10:31:12;;;;;;;7.80;7.20;;;19.90;32.30;;;;;;5095599;28;20465;-75
2021/05/01 10:33:45;;;;;;;8.77;7.97;;;19.90;31.60;;;;;;5095467;28;20440;-75
2021/05/01 10:36:19;;;;;;;9.40;8.50;;;19.40;31.30;;;;;;5095495;28;20421;-74
2021/05/01 10:38:56;;;;;;;9.27;8.37;;;18.80;32.50;;;;;;5095073;28;20835;-74
2021/05/01 10:41:24;;;;;;;8.93;8.03;;;18.10;33.80;;;;;;5095427;28;20451;-74
2021/05/01 10:43:53;;;;;;;9.57;8.67;;;17.80;34.60;;;;;;5093886;28;20462;-75
2021/05/01 10:46:24;;;;;;;10.10;8.80;;;17.80;34.50;;;;;;5095089;28;20511;-75
2021/05/01 10:48:52;;;;;;;10.60;9.60;;;17.40;36.00;;;;;;5095134;28;20482;-74
2021/05/01 10:51:20;;;;;;;8.30;7.60;;;17.90;36.00;;;;;;5094796;28;20456;-74
2021/05/01 10:53:48;;;;;;;9.70;8.70;;;18.80;31.90;;;;;;5094801;28;20446;-74
2021/05/01 10:56:15;;;;;;;10.70;9.67;;;19.90;32.30;;;;;;5095034;28;20443;-74
2021/05/01 10:58:44;;;;;;;10.07;9.20;;;21.00;29.80;;;;;;5095270;28;20480;-74
2021/05/01 11:01:12;;;;;;;8.70;7.90;;;21.10;30.60;;;;;;5095012;28;20512;-74
2021/05/01 11:03:46;;;;;;;8.23;7.43;;;21.50;29.40;;;;;;5094947;28;20448;-75
2021/05/01 11:06:23;;;;;;;7.50;6.80;;;21.90;28.40;;;;;;5094906;28;20470;-75
2021/05/01 11:09:03;;;;;;;6.90;6.30;;;22.20;30.00;;;;;;5094868;28;20475;-75
2021/05/01 11:11:32;;;;;;;6.70;6.10;;;22.40;27.90;;;;;;5094865;28;20493;-75
2021/05/01 11:14:14;;;;;;;6.47;5.70;;;23.10;26.50;;;;;;5094731;28;20444;-75
2021/05/01 11:16:45;;;;;;;6.67;6.07;;;22.90;26.00;;;;;;5094665;28;20778;-75
2021/05/01 11:19:13;;;;;;;6.43;5.90;;;23.00;27.20;;;;;;5094600;28;20460;-75
2021/05/01 11:21:43;;;;;;;7.30;6.10;;;22.50;26.40;;;;;;5094580;28;20452;-75
2021/05/01 11:24:11;;;;;;;5.47;5.00;;;22.90;27.20;;;;;;5094598;28;20443;-75
2021/05/01 11:26:41;;;;;;;5.47;4.97;;;23.50;26.20;;;;;;5094345;28;20476;-75
2021/05/01 11:29:09;;;;;;;9.77;6.23;;;24.60;26.00;;;;;;5094080;28;20468;-75
2021/05/01 11:31:36;;;;;;;7.27;5.70;;;25.60;23.00;;;;;;5094428;28;20448;-75
2021/05/01 11:34:05;;;;;;;7.80;5.40;;;25.10;22.90;;;;;;5094017;28;20447;-75
2021/05/01 11:36:32;;;;;;;7.50;6.57;;;24.40;24.40;;;;;;5094109;28;20466;-75
2021/05/01 11:39:00;;;;;;;7.20;6.50;;;23.40;25.50;;;;;;5094189;28;20483;-74
2021/05/01 11:41:27;;;;;;;6.50;5.90;;;22.20;26.30;;;;;;5094173;28;20447;-75
2021/05/01 11:43:54;;;;;;;6.63;5.90;;;21.60;27.30;;;;;;5094216;28;20429;-75
2021/05/01 11:46:28;;;;;;;5.97;5.40;;;21.10;27.80;;;;;;5094060;28;20495;-75
2021/05/01 11:49:02;;;;;;;7.00;6.40;;;21.50;28.10;;;;;;5094112;28;20463;-75
2021/05/01 11:51:43;;;;;;;7.20;6.50;;;22.80;27.80;;;;;;5094033;28;20459;-75
2021/05/01 11:54:23;;;;;;;6.63;6.03;;;24.30;26.60;;;;;;5093524;28;20928;-75
2021/05/01 11:56:57;;;;;;;6.60;6.10;;;25.20;23.70;;;;;;5094608;28;20436;-75
2021/05/01 11:59:23;;;;;;;6.73;6.13;;;25.30;22.60;;;;;;5093978;28;20506;-75
2021/05/01 12:02:00;;;;;;;5.63;5.13;;;25.30;21.60;;;;;;5093928;28;20497;-75
2021/05/01 12:04:53;;;;;;;6.50;5.90;;;25.80;22.80;;;;;;5093936;28;20446;-75
2021/05/01 12:07:25;;;;;;;7.20;6.50;;;26.60;22.70;;;;;;5093707;28;20919;-76
2021/05/01 12:09:53;;;;;;;6.00;5.13;;;27.10;23.10;;;;;;5093683;28;20972;-75
2021/05/01 12:12:23;;;;;;;6.60;6.00;;;27.50;22.90;;;;;;5093933;28;20962;-75
2021/05/01 12:14:49;;;;;;;6.27;5.67;;;28.10;21.90;;;;;;5094407;28;20424;-75
2021/05/01 12:17:19;;;;;;;8.13;5.50;;;28.80;22.20;;;;;;5094377;28;20448;-75
2021/05/01 12:19:47;;;;;;;5.80;5.30;;;29.30;20.30;;;;;;5095020;28;20471;-75
2021/05/01 12:22:23;;;;;;;8.77;5.40;;;29.00;19.00;;;;;;5099956;28;20451;-75
2021/05/01 12:24:49;;;;;;;5.80;5.30;;;29.60;19.20;;;;;;5094476;28;20471;-75
2021/05/01 12:27:50;;;;;;;6.93;6.23;;;30.20;18.30;;;;;;5093792;28;20454;-75
2021/05/01 12:30:48;;;;;;;4.90;4.40;;;29.90;17.90;;;;;;5093691;28;20548;-75
2021/05/01 12:33:49;;;;;;;6.30;5.20;;;29.80;19.80;;;;;;5088169;28;20448;-75
2021/05/01 12:36:25;;;;;;;5.60;5.13;;;31.00;19.30;;;;;;5093728;28;20423;-75
2021/05/01 12:38:53;;;;;;;5.87;5.47;;;30.90;18.80;;;;;;5093434;28;20903;-75
2021/05/01 12:41:20;;;;;;;5.80;4.97;;;30.80;17.70;;;;;;5093532;28;20480;-75